Time;durP1;ratioP1;P1;durP2;ratioP2;P2;SDS_P1;SDS_P2;PMS_P1;PMS_P2;Temp;Humidity;BMP_temperature;BMP_pressure;BME280_temperature;BME280_humidity;BME280_pressure;Samples;Min_cycle;Max_cycle;Signal;HPM_P1;HPM_P2
2021/12/30 00:00:42;;;;;;;11.90;3.25;;;9.00;99.90;;;;;;5096305;28;20449;-80
2021/12/30 00:03:09;;;;;;;13.65;3.90;;;9.20;99.90;;;;;;5096167;28;20131;-80
2021/12/30 00:05:35;;;;;;;15.80;3.88;;;9.50;99.90;;;;;;5129538;27;20044;-80
2021/12/30 00:08:00;;;;;;;20.80;3.97;;;10.20;99.90;;;;;;5096121;28;20055;-79
2021/12/30 00:10:29;;;;;;;12.65;4.13;;;8.50;99.90;;;;;;5095016;28;20044;-80
2021/12/30 00:12:57;;;;;;;14.05;3.45;;;9.80;99.90;;;;;;5094752;28;20055;-81
2021/12/30 00:15:23;;;;;;;21.63;3.75;;;8.40;99.90;;;;;;5077699;28;20419;-80
2021/12/30 00:17:48;;;;;;;16.27;4.15;;;8.50;99.90;;;;;;5095908;28;20044;-80
2021/12/30 00:20:15;;;;;;;17.17;3.83;;;8.50;99.90;;;;;;5095918;28;20044;-80
2021/12/30 00:22:42;;;;;;;15.20;4.10;;;8.50;99.90;;;;;;5094691;28;20050;-80
2021/12/30 00:25:09;;;;;;;16.42;4.57;;;8.50;99.90;;;;;;5111595;28;20097;-80
2021/12/30 00:27:35;;;;;;;20.95;5.03;;;8.70;99.90;;;;;;5095769;28;20051;-80
2021/12/30 00:30:03;;;;;;;10.38;4.10;;;10.00;99.90;;;;;;5095740;28;20043;-80
2021/12/30 00:32:28;;;;;;;26.90;4.75;;;8.50;99.90;;;;;;5094389;28;20040;-80
2021/12/30 00:34:54;;;;;;;13.05;4.38;;;8.40;99.90;;;;;;5094232;28;20139;-80
2021/12/30 00:37:20;;;;;;;17.30;4.28;;;9.40;99.90;;;;;;5094464;28;20079;-80
2021/12/30 00:39:46;;;;;;;20.42;4.63;;;8.50;99.90;;;;;;5095628;28;20102;-82
2021/12/30 00:42:12;;;;;;;20.25;4.55;;;8.60;99.90;;;;;;5094433;28;20044;-81
2021/12/30 00:44:38;;;;;;;20.90;5.05;;;8.50;99.90;;;;;;5094439;28;20131;-80
2021/12/30 00:47:04;;;;;;;14.13;4.03;;;8.40;99.90;;;;;;5094131;28;20098;-81
2021/12/30 00:49:30;;;;;;;20.25;5.90;;;8.40;99.90;;;;;;5095243;28;20051;-80
2021/12/30 00:51:56;;;;;;;18.63;5.03;;;8.40;99.90;;;;;;5095061;28;20124;-81
2021/12/30 00:54:23;;;;;;;26.35;4.93;;;8.40;99.90;;;;;;5128307;27;20077;-80
2021/12/30 00:56:49;;;;;;;21.10;5.32;;;9.90;99.90;;;;;;5095089;28;20518;-80
2021/12/30 00:59:15;;;;;;;19.15;4.55;;;8.40;99.90;;;;;;5095166;28;20123;-80
2021/12/30 01:01:41;;;;;;;23.75;6.30;;;8.40;99.90;;;;;;5093850;28;20135;-82
2021/12/30 01:04:07;;;;;;;19.98;5.05;;;8.40;99.90;;;;;;5095078;28;20437;-81
2021/12/30 01:06:33;;;;;;;25.42;5.53;;;8.40;99.90;;;;;;5093686;28;20050;-80
2021/12/30 01:08:59;;;;;;;26.73;5.32;;;9.80;99.90;;;;;;5093653;28;20052;-81
2021/12/30 01:11:25;;;;;;;;;;;8.40;99.90;;;;;;5095266;28;20043;-80
2021/12/30 01:14:10;;;;;;;22.50;5.80;;;8.40;99.90;;;;;;5094929;28;19920;-80
2021/12/30 01:16:41;;;;;;;35.55;6.45;;;8.40;99.90;;;;;;5093756;28;20127;-80
2021/12/30 01:22:00;;;;;;;26.77;5.97;;;8.40;99.90;;;;;;5052000;28;20045;-81
2021/12/30 01:24:26;;;;;;;18.92;5.60;;;8.40;99.90;;;;;;5052219;28;20068;-80
2021/12/30 01:26:52;;;;;;;28.17;7.38;;;8.40;99.90;;;;;;5052022;28;20063;-80
2021/12/30 01:29:18;;;;;;;27.40;7.05;;;8.60;99.90;;;;;;5035476;28;20456;-81
2021/12/30 01:31:43;;;;;;;24.08;7.20;;;9.70;99.90;;;;;;5035437;28;20106;-81
2021/12/30 01:34:09;;;;;;;36.65;6.68;;;9.60;99.90;;;;;;5051648;28;20060;-81
2021/12/30 01:36:35;;;;;;;32.20;7.13;;;8.60;99.90;;;;;;5035479;28;20044;-80
2021/12/30 01:39:01;;;;;;;29.35;6.95;;;9.50;99.90;;;;;;5035242;28;20068;-80
2021/12/30 01:41:27;;;;;;;34.72;7.63;;;8.30;99.90;;;;;;5051813;28;20482;-80
2021/12/30 01:43:52;;;;;;;33.55;8.07;;;8.30;99.90;;;;;;5018967;28;20052;-82
2021/12/30 01:46:18;;;;;;;30.17;8.30;;;8.20;99.90;;;;;;5035380;28;20053;-79
2021/12/30 01:48:44;;;;;;;34.63;7.65;;;9.60;99.90;;;;;;5034813;28;20083;-80
2021/12/30 01:51:10;;;;;;;31.13;6.68;;;8.20;99.90;;;;;;5051534;28;20045;-80
2021/12/30 01:53:36;;;;;;;29.80;7.88;;;8.30;99.90;;;;;;5051613;28;20474;-81
2021/12/30 01:56:02;;;;;;;;;;;8.60;99.90;;;;;;5051979;28;20056;-81
2021/12/30 01:58:28;;;;;;;27.60;6.30;;;8.10;99.90;;;;;;5067408;28;19920;-81
2021/12/30 02:00:54;;;;;;;32.78;7.32;;;8.20;99.90;;;;;;5094052;28;20044;-80
2021/12/30 02:03:23;;;;;;;27.95;5.90;;;8.20;99.90;;;;;;5093800;28;20051;-80
2021/12/30 02:05:50;;;;;;;29.38;6.75;;;8.20;99.90;;;;;;5094074;28;20055;-82
2021/12/30 02:08:17;;;;;;;31.45;7.18;;;9.00;99.90;;;;;;5092810;28;20070;-80
2021/12/30 02:10:45;;;;;;;26.33;7.05;;;9.70;99.90;;;;;;5092749;28;20051;-81
2021/12/30 02:13:12;;;;;;;34.47;7.28;;;8.20;99.90;;;;;;5093790;28;20044;-80
2021/12/30 02:15:38;;;;;;;25.73;6.63;;;9.30;99.90;;;;;;5093653;28;20536;-80
2021/12/30 02:18:05;;;;;;;31.65;6.35;;;8.20;99.90;;;;;;5092151;28;20398;-80
2021/12/30 02:20:55;;;;;;;28.10;6.07;;;8.20;99.90;;;;;;5093783;28;20040;-80
2021/12/30 02:23:27;;;;;;;19.33;5.90;;;8.20;99.90;;;;;;5092436;28;20068;-80
2021/12/30 02:25:56;;;;;;;28.23;6.53;;;8.20;99.90;;;;;;5093548;28;20402;-81
2021/12/30 02:28:24;;;;;;;23.92;6.32;;;8.80;99.90;;;;;;5093382;28;20044;-80
2021/12/30 02:30:52;;;;;;;28.75;6.45;;;8.80;99.90;;;;;;5093257;28;20094;-81
2021/12/30 02:33:18;;;;;;;24.55;6.28;;;8.20;99.90;;;;;;5092262;28;20056;-80
2021/12/30 02:35:44;;;;;;;30.05;5.53;;;8.20;99.90;;;;;;5092392;28;20142;-81
2021/12/30 02:38:10;;;;;;;28.27;6.15;;;8.20;99.90;;;;;;5093427;28;20048;-81
2021/12/30 02:40:43;;;;;;;30.58;6.53;;;9.00;99.90;;;;;;5093330;28;20044;-81
2021/12/30 02:43:22;;;;;;;21.77;5.78;;;8.20;99.90;;;;;;5093353;28;20126;-80
2021/12/30 02:45:48;;;;;;;17.27;5.35;;;9.30;99.90;;;;;;5092492;28;20471;-82
2021/12/30 02:48:16;;;;;;;23.48;5.97;;;8.20;99.90;;;;;;5093379;28;20131;-80
2021/12/30 02:50:43;;;;;;;23.45;6.15;;;8.20;99.90;;;;;;5091964;28;20043;-80
2021/12/30 02:53:11;;;;;;;24.08;6.32;;;8.20;99.90;;;;;;5093359;28;20048;-80
2021/12/30 02:55:37;;;;;;;26.67;6.25;;;8.20;99.90;;;;;;5092150;28;20056;-80
2021/12/30 02:58:02;;;;;;;25.55;8.13;;;8.20;99.90;;;;;;5092177;28;20186;-81
2021/12/30 03:00:29;;;;;;;20.65;5.65;;;8.20;99.90;;;;;;5093413;28;20126;-80
2021/12/30 03:02:56;;;;;;;30.67;8.93;;;8.20;99.90;;;;;;5093251;28;20066;-80
2021/12/30 03:05:24;;;;;;;28.20;6.95;;;8.20;99.90;;;;;;5092218;28;20044;-81
2021/12/30 03:07:52;;;;;;;30.70;5.88;;;8.20;99.90;;;;;;5126360;28;20140;-80
2021/12/30 03:10:22;;;;;;;25.05;5.63;;;8.20;99.90;;;;;;5093040;28;20048;-79
2021/12/30 03:12:56;;;;;;;22.13;6.85;;;8.20;99.90;;;;;;5091653;28;20048;-79
2021/12/30 03:15:24;;;;;;;30.60;6.72;;;8.10;99.90;;;;;;5093201;28;20040;-80
2021/12/30 03:17:50;;;;;;;30.00;6.88;;;8.10;99.90;;;;;;5092990;28;20047;-80
2021/12/30 03:20:17;;;;;;;24.13;6.90;;;8.10;99.90;;;;;;5093087;28;20048;-80
2021/12/30 03:22:44;;;;;;;32.30;7.07;;;8.70;99.90;;;;;;5093117;28;20466;-80
2021/12/30 03:25:12;;;;;;;26.25;6.07;;;8.00;99.90;;;;;;5091938;28;20130;-80
2021/12/30 03:27:38;;;;;;;31.92;7.15;;;8.00;99.90;;;;;;5091887;28;20048;-80
2021/12/30 03:30:07;;;;;;;28.15;7.80;;;8.60;99.90;;;;;;5095382;28;20040;-80
2021/12/30 03:32:33;;;;;;;24.77;7.55;;;8.00;99.90;;;;;;5096761;28;20044;-79
2021/12/30 03:34:58;;;;;;;33.88;8.10;;;7.90;99.90;;;;;;5096612;28;20059;-80
2021/12/30 03:37:24;;;;;;;41.63;9.15;;;7.90;99.90;;;;;;5096629;28;20044;-82
2021/12/30 03:39:50;;;;;;;35.72;9.05;;;8.10;99.90;;;;;;5096669;28;20044;-81
2021/12/30 03:42:16;;;;;;;39.47;10.55;;;7.90;99.90;;;;;;5096564;28;20051;-80
2021/12/30 03:44:43;;;;;;;33.13;10.45;;;8.00;99.90;;;;;;5096485;28;20384;-80
2021/12/30 03:47:14;;;;;;;;;;;8.50;99.90;;;;;;5097027;28;20380;-80
2021/12/30 03:49:44;;;;;;;33.25;11.05;;;9.70;99.90;;;;;;5096543;28;19924;-81
2021/12/30 03:52:11;;;;;;;36.15;11.88;;;8.10;99.90;;;;;;5095097;28;20044;-80
2021/12/30 03:54:37;;;;;;;43.03;12.32;;;8.70;99.90;;;;;;5095319;28;20174;-79
2021/12/30 03:57:03;;;;;;;36.10;14.18;;;8.20;99.90;;;;;;5096355;28;20123;-80
2021/12/30 03:59:28;;;;;;;45.88;13.88;;;8.20;99.90;;;;;;5096453;28;20044;-80
2021/12/30 04:01:54;;;;;;;53.83;14.75;;;8.80;99.90;;;;;;5095173;28;20064;-80
2021/12/30 04:04:20;;;;;;;42.28;16.35;;;8.20;99.90;;;;;;5096274;28;20059;-79
2021/12/30 04:06:45;;;;;;;39.45;14.10;;;8.30;99.90;;;;;;5096212;28;20372;-80
2021/12/30 04:09:12;;;;;;;45.35;14.07;;;8.30;99.90;;;;;;5078235;28;20101;-80
2021/12/30 04:11:41;;;;;;;42.00;15.07;;;8.40;99.90;;;;;;5095847;28;20097;-80
2021/12/30 04:14:06;;;;;;;45.38;15.20;;;7.90;99.90;;;;;;5096200;28;20052;-80
2021/12/30 04:16:34;;;;;;;44.78;15.40;;;8.40;99.90;;;;;;5095994;28;20407;-79
2021/12/30 04:19:00;;;;;;;42.35;16.48;;;8.70;99.90;;;;;;5095674;28;20504;-79
2021/12/30 04:21:25;;;;;;;32.92;13.77;;;8.50;99.90;;;;;;5094669;28;20127;-81
2021/12/30 04:23:51;;;;;;;50.22;15.38;;;8.50;99.90;;;;;;5095814;28;20119;-80
2021/12/30 04:26:17;;;;;;;49.47;15.13;;;8.50;99.90;;;;;;5094555;28;20086;-79
2021/12/30 04:28:44;;;;;;;44.30;14.70;;;9.40;99.90;;;;;;5095886;28;20051;-81
2021/12/30 04:31:10;;;;;;;50.03;15.88;;;9.10;99.90;;;;;;5095639;28;20052;-80
2021/12/30 04:33:35;;;;;;;42.33;15.07;;;8.50;99.90;;;;;;5094485;28;20059;-80
2021/12/30 04:36:02;;;;;;;51.17;15.07;;;9.90;99.90;;;;;;5095633;28;20453;-80
2021/12/30 04:38:29;;;;;;;;;;;8.60;99.90;;;;;;5095956;28;20044;-80
2021/12/30 04:40:55;;;;;;;46.47;16.35;;;8.50;99.90;;;;;;5128004;27;20295;-80
2021/12/30 04:43:21;;;;;;;40.65;15.52;;;9.10;99.90;;;;;;5095624;28;20040;-80
2021/12/30 04:45:47;;;;;;;40.03;14.52;;;9.70;99.90;;;;;;5095301;28;20403;-80
2021/12/30 04:48:15;;;;;;;56.35;17.10;;;7.20;99.90;;;;;;5095435;28;20509;-80
2021/12/30 04:50:41;;;;;;;42.70;15.63;;;8.60;99.90;;;;;;5094412;28;20055;-80
2021/12/30 04:53:07;;;;;;;47.78;14.90;;;8.60;99.90;;;;;;5093984;28;20395;-80
2021/12/30 04:55:32;;;;;;;43.03;14.93;;;8.70;99.90;;;;;;5095057;28;20376;-80
2021/12/30 04:57:58;;;;;;;49.08;16.25;;;8.70;99.90;;;;;;5095087;28;20050;-81
2021/12/30 05:00:24;;;;;;;37.50;13.07;;;9.80;99.90;;;;;;5095271;28;20083;-79
2021/12/30 05:05:28;;;;;;;45.58;14.82;;;8.80;99.90;;;;;;5095359;28;20047;-80
2021/12/30 05:07:53;;;;;;;48.35;13.40;;;8.80;99.90;;;;;;5094966;28;20051;-80
2021/12/30 05:10:19;;;;;;;34.58;12.75;;;8.80;99.90;;;;;;5094820;28;20491;-79
2021/12/30 05:12:45;;;;;;;44.55;14.95;;;10.30;99.90;;;;;;5128081;27;20048;-80
2021/12/30 05:15:11;;;;;;;43.75;13.68;;;8.80;99.90;;;;;;5093963;28;20472;-80
2021/12/30 05:17:39;;;;;;;35.50;13.68;;;8.90;99.90;;;;;;5094684;28;20487;-80
2021/12/30 05:20:05;;;;;;;44.85;14.77;;;8.90;99.90;;;;;;5094826;28;20407;-80
2021/12/30 05:22:31;;;;;;;37.17;13.63;;;8.90;99.90;;;;;;5093648;28;20059;-80
2021/12/30 05:24:57;;;;;;;37.45;14.75;;;8.90;99.90;;;;;;5093301;28;20047;-81
2021/12/30 05:27:23;;;;;;;46.05;13.80;;;10.10;99.90;;;;;;5094652;28;20036;-80
2021/12/30 05:29:48;;;;;;;40.13;14.35;;;9.00;99.90;;;;;;5094617;28;20044;-81
2021/12/30 05:32:14;;;;;;;43.35;14.43;;;9.00;99.90;;;;;;5094364;28;20044;-80
2021/12/30 05:34:40;;;;;;;51.92;16.02;;;10.40;99.90;;;;;;5094524;28;20056;-79
2021/12/30 05:37:06;;;;;;;38.63;14.55;;;9.10;99.90;;;;;;5094349;28;20070;-80
2021/12/30 05:39:35;;;;;;;54.00;17.58;;;9.20;99.90;;;;;;5093081;28;20051;-80
2021/12/30 05:42:01;;;;;;;50.72;14.93;;;10.50;99.90;;;;;;5127281;27;20099;-82
2021/12/30 05:44:27;;;;;;;44.05;16.42;;;9.30;99.90;;;;;;5094439;28;20069;-80
2021/12/30 05:46:53;;;;;;;50.95;16.58;;;9.30;99.90;;;;;;5127529;27;20177;-81
2021/12/30 05:49:19;;;;;;;45.65;15.13;;;9.40;99.90;;;;;;5094239;28;20059;-82
2021/12/30 05:51:44;;;;;;;47.03;16.45;;;9.40;99.90;;;;;;5093410;28;20121;-81
2021/12/30 05:54:10;;;;;;;40.88;16.05;;;9.40;99.90;;;;;;5093948;28;20055;-80
2021/12/30 05:56:36;;;;;;;46.00;16.10;;;10.70;99.90;;;;;;5093903;28;20043;-79
2021/12/30 05:59:02;;;;;;;54.63;16.80;;;9.60;99.90;;;;;;5094220;28;20079;-80
2021/12/30 06:01:27;;;;;;;45.28;14.98;;;9.60;99.90;;;;;;5094067;28;20066;-79
2021/12/30 06:03:53;;;;;;;35.80;13.95;;;9.60;99.90;;;;;;5093963;28;20044;-81
2021/12/30 06:06:18;;;;;;;42.75;15.30;;;9.60;99.90;;;;;;5093771;28;20052;-79
2021/12/30 06:08:45;;;;;;;38.97;15.60;;;9.70;99.90;;;;;;5092696;28;20047;-79
2021/12/30 06:11:10;;;;;;;41.75;14.27;;;9.70;99.90;;;;;;5092618;28;20048;-80
2021/12/30 06:13:36;;;;;;;36.47;15.18;;;9.80;99.90;;;;;;5093779;28;20474;-79
2021/12/30 06:16:02;;;;;;;42.78;16.40;;;9.70;99.90;;;;;;5093905;28;20059;-80
2021/12/30 06:18:28;;;;;;;38.70;16.35;;;9.80;99.90;;;;;;5093893;28;20047;-82
2021/12/30 06:20:54;;;;;;;37.22;14.88;;;9.80;99.90;;;;;;5093793;28;20052;-82
2021/12/30 06:23:19;;;;;;;33.92;15.63;;;9.80;99.90;;;;;;5093677;28;20048;-79
2021/12/30 06:25:45;;;;;;;33.28;13.05;;;8.50;99.90;;;;;;5093520;28;20151;-81
2021/12/30 06:28:11;;;;;;;34.50;14.40;;;9.90;99.90;;;;;;5092459;28;20044;-80
2021/12/30 06:30:36;;;;;;;36.83;13.98;;;10.00;99.90;;;;;;5093795;28;20406;-77
2021/12/30 06:33:02;;;;;;;34.42;13.93;;;10.20;99.90;;;;;;5075811;28;20043;-81
2021/12/30 06:35:31;;;;;;;26.52;15.00;;;9.90;99.90;;;;;;5127404;27;20083;-80
2021/12/30 06:37:58;;;;;;;37.50;16.13;;;10.10;99.90;;;;;;5094552;28;20044;-81
2021/12/30 06:40:23;;;;;;;32.90;13.63;;;9.90;99.90;;;;;;5093389;28;20048;-81
2021/12/30 06:42:51;;;;;;;27.67;13.80;;;10.00;99.90;;;;;;5093679;28;20044;-81
2021/12/30 06:45:18;;;;;;;30.05;14.10;;;10.00;99.90;;;;;;5094334;28;20047;-81
2021/12/30 06:47:44;;;;;;;46.42;16.90;;;9.90;99.90;;;;;;5094431;28;20056;-80
2021/12/30 06:50:12;;;;;;;38.25;15.70;;;10.10;99.90;;;;;;5095044;28;20094;-81
2021/12/30 06:52:38;;;;;;;35.22;13.40;;;9.90;99.90;;;;;;5093583;28;20128;-81
2021/12/30 06:55:05;;;;;;;25.35;13.77;;;9.90;99.90;;;;;;5126686;28;20044;-81
2021/12/30 06:57:30;;;;;;;36.30;14.48;;;9.90;99.90;;;;;;5094094;28;20048;-80
2021/12/30 06:59:56;;;;;;;39.00;16.80;;;8.50;99.90;;;;;;5075744;28;20491;-81
2021/12/30 07:02:22;;;;;;;35.28;15.25;;;10.00;99.90;;;;;;5093641;28;20047;-82
2021/12/30 07:04:48;;;;;;;36.90;14.55;;;10.00;99.90;;;;;;5096906;28;20489;-82
2021/12/30 07:07:14;;;;;;;33.75;16.25;;;10.00;99.90;;;;;;5098178;28;20495;-80
2021/12/30 07:09:40;;;;;;;34.08;15.95;;;10.00;99.90;;;;;;5097923;28;20380;-80
2021/12/30 07:12:06;;;;;;;;;;;10.00;99.90;;;;;;5097858;28;20048;-80
2021/12/30 07:14:31;;;;;;;33.17;14.68;;;10.10;99.90;;;;;;5097906;28;19924;-79
2021/12/30 07:16:57;;;;;;;35.10;14.93;;;10.80;99.90;;;;;;5098983;28;20040;-80
2021/12/30 07:19:23;;;;;;;36.92;15.02;;;10.10;99.90;;;;;;5098449;28;20040;-82
2021/12/30 07:21:50;;;;;;;41.63;17.77;;;10.20;99.90;;;;;;5098357;28;20044;-81
2021/12/30 07:24:17;;;;;;;31.42;13.15;;;11.40;99.90;;;;;;5131059;27;20173;-80
2021/12/30 07:26:43;;;;;;;40.40;17.02;;;10.30;99.90;;;;;;5096919;28;20097;-80
2021/12/30 07:29:08;;;;;;;46.92;17.02;;;10.30;99.90;;;;;;5097050;28;20551;-81
2021/12/30 07:31:34;;;;;;;31.42;14.27;;;10.30;99.90;;;;;;5097786;28;20122;-80
2021/12/30 07:34:00;;;;;;;32.38;15.35;;;10.30;99.90;;;;;;5096670;28;20083;-80
2021/12/30 07:36:26;;;;;;;35.25;14.50;;;10.50;99.90;;;;;;5097025;28;20491;-83
2021/12/30 07:38:52;;;;;;;28.85;13.35;;;10.30;99.90;;;;;;5097135;28;20051;-81
2021/12/30 07:41:18;;;;;;;40.40;17.38;;;10.60;99.90;;;;;;5129519;27;20080;-82
2021/12/30 07:43:43;;;;;;;;;;;10.40;99.90;;;;;;5095828;28;20091;-81
2021/12/30 07:46:11;;;;;;;36.03;13.95;;;10.40;99.90;;;;;;5096775;28;19927;-80
2021/12/30 07:48:37;;;;;;;33.90;14.80;;;10.50;99.90;;;;;;5096649;28;20048;-81
2021/12/30 07:51:03;;;;;;;37.72;14.82;;;10.50;99.90;;;;;;5129707;27;20395;-82
2021/12/30 07:53:29;;;;;;;33.88;14.32;;;10.50;99.90;;;;;;5096931;28;20058;-82
2021/12/30 07:55:55;;;;;;;36.38;14.85;;;10.50;99.90;;;;;;5129847;27;20044;-82
2021/12/30 07:58:20;;;;;;;34.17;14.52;;;11.50;99.90;;;;;;5095118;28;20406;-81
2021/12/30 08:00:46;;;;;;;34.53;14.48;;;10.60;99.90;;;;;;5095553;28;20044;-83
2021/12/30 08:03:12;;;;;;;31.45;15.30;;;10.60;99.90;;;;;;5096588;28;20040;-81
2021/12/30 08:05:38;;;;;;;32.85;14.95;;;11.70;99.90;;;;;;5096382;28;20051;-81
2021/12/30 08:08:04;;;;;;;26.50;12.30;;;10.50;99.90;;;;;;5096114;28;20048;-81
2021/12/30 08:10:30;;;;;;;32.67;14.10;;;10.70;99.90;;;;;;5096200;28;20402;-82
2021/12/30 08:12:56;;;;;;;;;;;10.70;99.90;;;;;;5095059;28;20056;-82
2021/12/30 08:15:23;;;;;;;31.08;13.90;;;10.70;99.90;;;;;;5095500;28;19926;-81
2021/12/30 08:17:49;;;;;;;28.90;12.93;;;10.70;99.90;;;;;;5095828;28;20040;-82
2021/12/30 08:20:17;;;;;;;31.55;11.70;;;10.70;99.90;;;;;;5095931;28;20449;-83
2021/12/30 08:22:43;;;;;;;24.73;10.30;;;10.80;99.90;;;;;;5095901;28;20143;-82
2021/12/30 08:25:11;;;;;;;22.13;10.40;;;10.80;99.90;;;;;;5095816;28;20127;-81
2021/12/30 08:27:37;;;;;;;25.35;10.40;;;10.80;99.90;;;;;;5094311;28;20406;-81
2021/12/30 08:30:07;;;;;;;23.85;8.55;;;10.90;99.90;;;;;;5095880;28;20127;-80
2021/12/30 08:32:36;;;;;;;18.33;7.90;;;10.90;99.90;;;;;;5095722;28;20040;-81
2021/12/30 08:35:03;;;;;;;15.23;7.28;;;10.90;99.90;;;;;;5095263;28;20143;-82
2021/12/30 08:37:30;;;;;;;;;;;10.90;99.90;;;;;;5095970;28;20060;-82
2021/12/30 08:39:55;;;;;;;13.57;6.78;;;10.90;99.90;;;;;;5095450;28;20298;-82
2021/12/30 08:42:27;;;;;;;16.95;6.03;;;12.20;99.90;;;;;;5095381;28;20040;-82
2021/12/30 08:44:54;;;;;;;16.48;6.15;;;11.00;99.90;;;;;;5095446;28;20059;-82
2021/12/30 08:47:21;;;;;;;18.02;7.10;;;11.00;99.90;;;;;;5077585;28;20059;-81
2021/12/30 08:49:47;;;;;;;13.35;6.60;;;11.10;99.90;;;;;;5095647;28;20047;-81
2021/12/30 08:52:15;;;;;;;12.85;5.93;;;11.10;99.90;;;;;;5095218;28;20048;-81
2021/12/30 08:54:41;;;;;;;13.70;6.25;;;11.20;99.90;;;;;;5077274;28;20047;-80
2021/12/30 08:57:07;;;;;;;10.55;5.30;;;11.10;99.90;;;;;;5093734;28;20044;-82
2021/12/30 08:59:35;;;;;;;8.98;4.32;;;11.10;99.90;;;;;;5094718;28;20414;-82
2021/12/30 09:02:04;;;;;;;11.15;5.13;;;11.10;99.90;;;;;;5095291;28;20491;-84
2021/12/30 09:04:31;;;;;;;7.65;4.65;;;11.20;99.90;;;;;;5095040;28;20050;-82
2021/12/30 09:06:57;;;;;;;7.40;3.35;;;11.20;99.90;;;;;;5093834;28;20499;-85
2021/12/30 09:09:22;;;;;;;6.82;3.20;;;11.30;99.90;;;;;;5095119;28;20064;-82
2021/12/30 09:11:48;;;;;;;8.10;2.80;;;10.20;99.90;;;;;;5093550;28;20089;-82
2021/12/30 09:14:14;;;;;;;5.28;2.58;;;11.30;99.90;;;;;;5095010;28;20048;-82
2021/12/30 09:16:41;;;;;;;6.97;3.35;;;11.30;99.90;;;;;;5094023;28;20097;-83
2021/12/30 09:19:06;;;;;;;;;;;12.50;99.90;;;;;;5095147;28;20090;-82
2021/12/30 09:21:32;;;;;;;3.50;2.08;;;11.40;99.90;;;;;;5094908;28;19971;-83
2021/12/30 09:23:58;;;;;;;4.88;2.90;;;11.40;99.90;;;;;;5094720;28;20070;-82
2021/12/30 09:26:24;;;;;;;4.18;2.25;;;11.40;99.90;;;;;;5093654;28;20051;-82
2021/12/30 09:28:49;;;;;;;4.20;2.45;;;11.40;99.90;;;;;;5094208;28;20056;-83
2021/12/30 09:31:15;;;;;;;5.85;2.58;;;11.40;99.90;;;;;;5094602;28;20048;-82
2021/12/30 09:33:41;;;;;;;5.97;2.90;;;11.40;99.90;;;;;;5076627;28;20491;-84
2021/12/30 09:36:07;;;;;;;5.50;2.75;;;11.50;99.90;;;;;;5094392;28;20059;-83
2021/12/30 09:38:33;;;;;;;4.35;2.47;;;11.50;99.90;;;;;;5094272;28;20044;-84
2021/12/30 09:40:59;;;;;;;5.28;2.25;;;11.60;99.90;;;;;;5093082;28;20399;-81
2021/12/30 09:43:25;;;;;;;5.95;3.25;;;11.60;99.90;;;;;;5094313;28;20087;-82
2021/12/30 09:45:51;;;;;;;5.15;3.22;;;11.60;99.90;;;;;;5093745;28;20571;-82
2021/12/30 09:48:25;;;;;;;8.23;3.15;;;11.70;99.90;;;;;;5110972;27;20434;-82
2021/12/30 09:50:53;;;;;;;6.30;3.53;;;11.70;99.90;;;;;;5110834;28;20048;-82
2021/12/30 09:53:23;;;;;;;4.95;2.30;;;11.80;99.90;;;;;;5110833;28;20047;-81
2021/12/30 09:55:50;;;;;;;6.22;2.67;;;11.80;99.90;;;;;;5109500;28;20051;-83
2021/12/30 09:58:16;;;;;;;6.13;2.50;;;11.70;99.90;;;;;;5109358;28;20039;-82
2021/12/30 10:00:42;;;;;;;3.05;1.58;;;12.20;99.90;;;;;;5109942;28;20043;-83
2021/12/30 10:03:08;;;;;;;;;;;11.90;99.90;;;;;;5110840;28;20044;-81
2021/12/30 10:05:37;;;;;;;3.95;1.92;;;11.90;99.90;;;;;;5110781;28;19924;-84
2021/12/30 10:08:24;;;;;;;2.47;1.52;;;11.90;99.90;;;;;;5109425;28;20525;-84
2021/12/30 10:10:53;;;;;;;5.43;1.98;;;12.00;99.90;;;;;;5110833;28;20056;-82
2021/12/30 10:13:30;;;;;;;5.05;2.28;;;12.00;99.90;;;;;;5110898;28;20044;-82
2021/12/30 10:16:01;;;;;;;5.63;2.22;;;12.00;99.90;;;;;;5109385;28;20378;-81
2021/12/30 10:18:50;;;;;;;4.65;2.10;;;13.40;99.90;;;;;;5110484;28;20060;-82
2021/12/30 10:21:33;;;;;;;6.50;3.13;;;12.00;99.90;;;;;;5110476;28;20109;-82
2021/12/30 10:24:03;;;;;;;8.85;2.83;;;12.10;99.90;;;;;;5110509;28;20105;-82
2021/12/30 10:26:30;;;;;;;9.68;3.95;;;12.10;99.90;;;;;;5108822;28;20048;-84
2021/12/30 10:29:03;;;;;;;7.43;3.35;;;12.00;99.90;;;;;;5109530;28;20060;-84
2021/12/30 10:31:32;;;;;;;9.63;3.55;;;12.00;99.90;;;;;;5110079;28;20519;-82
2021/12/30 10:34:04;;;;;;;8.52;3.38;;;11.80;99.90;;;;;;5108877;28;20048;-82
2021/12/30 10:36:38;;;;;;;10.75;2.97;;;12.10;99.90;;;;;;5110081;28;20452;-83
2021/12/30 10:39:30;;;;;;;7.85;2.47;;;12.00;99.90;;;;;;5110120;28;20460;-81
2021/12/30 10:42:04;;;;;;;9.23;4.10;;;12.10;99.90;;;;;;5109776;28;20055;-82
2021/12/30 10:44:48;;;;;;;14.40;3.03;;;12.00;99.90;;;;;;5109203;28;20063;-82
2021/12/30 10:47:15;;;;;;;9.48;3.30;;;12.10;99.90;;;;;;5108112;28;20120;-82
2021/12/30 10:49:40;;;;;;;;;;;12.10;99.90;;;;;;5109115;28;20052;-82
2021/12/30 10:52:06;;;;;;;;;;;12.00;99.90;;;;;;5109250;28;19923;-81
2021/12/30 10:54:34;;;;;;;;;;;12.00;99.90;;;;;;5109080;28;19924;-82
2021/12/30 10:57:02;;;;;;;;;;;12.00;99.90;;;;;;5108909;28;19941;-82
2021/12/30 10:59:29;;;;;;;;;;;11.60;99.90;;;;;;5098119;28;20401;-82
2021/12/30 11:02:02;;;;;;;;;;;12.00;99.90;;;;;;5095510;28;20303;-82
2021/12/30 11:04:32;;;;;;;;;;;12.00;99.90;;;;;;5129265;27;19926;-83
2021/12/30 11:06:58;;;;;;;;;;;12.00;99.90;;;;;;5096295;28;19971;-82
2021/12/30 11:09:25;;;;;;;;;;;12.00;99.90;;;;;;5096367;28;19920;-82
2021/12/30 11:11:53;;;;;;;;;;;11.70;99.90;;;;;;5095879;28;20404;-82
2021/12/30 11:14:21;;;;;;;;;;;12.00;99.90;;;;;;5112433;28;20033;-82
2021/12/30 11:17:00;;;;;;;;;;;12.00;99.90;;;;;;5096496;28;19927;-84
2021/12/30 11:19:28;;;;;;;;;;;12.00;99.90;;;;;;5096001;28;20014;-83
2021/12/30 11:21:57;;;;;;;;;;;12.00;99.90;;;;;;5096046;28;20290;-82
2021/12/30 11:24:24;;;;;;;;;;;12.00;99.90;;;;;;5096513;28;19923;-83
2021/12/30 11:26:50;;;;;;;;;;;11.90;99.90;;;;;;5094399;28;19923;-85
2021/12/30 11:29:17;;;;;;;;;;;11.90;99.90;;;;;;5095807;28;20330;-83
2021/12/30 11:31:43;;;;;;;;;;;12.00;99.90;;;;;;5094717;28;19931;-85
2021/12/30 11:34:09;;;;;;;;;;;12.00;99.90;;;;;;5128527;27;19920;-83
2021/12/30 11:36:35;;;;;;;;;;;11.90;99.90;;;;;;5128551;27;19935;-83
2021/12/30 11:39:04;;;;;;;;;;;12.00;99.90;;;;;;5095501;28;19923;-83
2021/12/30 11:41:43;;;;;;;;;;;11.90;99.90;;;;;;5095411;28;19955;-83
2021/12/30 11:44:29;;;;;;;;;;;11.90;99.90;;;;;;5095776;28;19924;-82
2021/12/30 11:46:56;;;;;;;;;;;12.00;99.90;;;;;;5095147;28;20347;-84
2021/12/30 11:49:21;;;;;;;;;;;11.90;99.90;;;;;;5095168;28;19927;-85
2021/12/30 11:51:52;;;;;;;;;;;12.00;99.90;;;;;;5094210;28;20306;-85
2021/12/30 11:54:31;;;;;;;;;;;11.90;99.90;;;;;;5095489;28;20346;-84
2021/12/30 11:57:15;;;;;;;;;;;10.80;99.90;;;;;;5095082;28;19939;-83
2021/12/30 11:59:41;;;;;;;;;;;11.90;99.90;;;;;;5093841;28;19926;-84
2021/12/30 12:02:25;;;;;;;;;;;11.90;99.90;;;;;;5127958;27;20019;-85
2021/12/30 12:04:51;;;;;;;;;;;11.90;99.90;;;;;;5095198;28;20294;-83
2021/12/30 12:07:17;;;;;;;;;;;11.90;99.90;;;;;;5093512;28;19920;-85
2021/12/30 12:09:52;;;;;;;;;;;12.00;99.90;;;;;;5094039;28;19927;-84
2021/12/30 12:12:31;;;;;;;;;;;11.90;99.90;;;;;;5094665;28;19920;-84
2021/12/30 12:14:59;;;;;;;;;;;10.60;99.90;;;;;;5111050;28;19974;-84
2021/12/30 12:17:35;;;;;;;;;;;12.00;99.90;;;;;;5094882;28;19920;-84
2021/12/30 12:20:13;;;;;;;;;;;12.00;99.90;;;;;;5093968;28;19962;-84
2021/12/30 12:22:39;;;;;;;;;;;12.00;99.90;;;;;;5109872;28;20390;-84
2021/12/30 12:25:15;;;;;;;;;;;12.00;99.90;;;;;;5094582;28;19920;-83
2021/12/30 12:27:49;;;;;;;;;;;12.00;99.90;;;;;;5094450;28;19927;-85
2021/12/30 12:30:21;;;;;;;;;;;12.00;99.90;;;;;;5127584;27;20370;-85
2021/12/30 12:32:50;;;;;;;;;;;12.00;99.90;;;;;;5088906;28;20331;-84
2021/12/30 12:35:19;;;;;;;;;;;12.00;99.90;;;;;;5072033;28;19924;-85
2021/12/30 12:37:47;;;;;;;;;;;12.00;99.90;;;;;;5072219;28;19920;-86
2021/12/30 12:40:24;;;;;;;;;;;11.90;99.90;;;;;;5055377;28;20023;-85
2021/12/30 12:42:50;;;;;;;;;;;12.00;99.90;;;;;;5055244;28;19970;-84
2021/12/30 12:45:19;;;;;;;;;;;12.10;99.90;;;;;;5055382;28;19924;-85
2021/12/30 12:47:57;;;;;;;;;;;12.10;99.90;;;;;;5038033;28;19920;-86
2021/12/30 12:50:39;;;;;;;;;;;12.10;99.90;;;;;;5071143;28;20292;-86
2021/12/30 12:53:23;;;;;;;;;;;12.40;99.90;;;;;;5040096;28;19924;-84
2021/12/30 12:55:53;;;;;;;;;;;12.10;99.90;;;;;;5054726;28;19959;-84
2021/12/30 12:58:33;;;;;;;;;;;10.80;99.90;;;;;;5053467;28;19992;-84
2021/12/30 13:01:03;;;;;;;;;;;12.10;99.90;;;;;;5072016;28;20398;-83
2021/12/30 13:03:35;;;;;;;;;;;12.70;99.90;;;;;;5071628;28;19920;-84
2021/12/30 13:06:24;;;;;;;;;;;12.10;99.90;;;;;;5038541;28;19920;-85